sensor_id;sensor_type;location;lat;lon;timestamp;P1;durP1;ratioP1;P2;durP2;ratioP2
8594;SDS011;4335;48.860;9.198;2024-02-15T00:00:15;3.50;;;2.13;;
8594;SDS011;4335;48.860;9.198;2024-02-15T00:02:43;2.77;;;1.87;;
8594;SDS011;4335;48.860;9.198;2024-02-15T00:05:10;3.00;;;2.17;;
8594;SDS011;4335;48.860;9.198;2024-02-15T00:07:39;3.87;;;2.07;;
8594;SDS011;4335;48.860;9.198;2024-02-15T00:10:13;2.63;;;1.90;;
8594;SDS011;4335;48.860;9.198;2024-02-15T00:12:41;4.83;;;2.20;;
8594;SDS011;4335;48.860;9.198;2024-02-15T00:15:10;1.87;;;1.63;;
8594;SDS011;4335;48.860;9.198;2024-02-15T00:17:37;3.23;;;2.03;;
8594;SDS011;4335;48.860;9.198;2024-02-15T00:20:05;4.50;;;1.97;;
8594;SDS011;4335;48.860;9.198;2024-02-15T00:22:34;2.90;;;2.23;;
8594;SDS011;4335;48.860;9.198;2024-02-15T00:25:02;4.73;;;3.00;;
8594;SDS011;4335;48.860;9.198;2024-02-15T00:27:31;3.10;;;2.40;;
8594;SDS011;4335;48.860;9.198;2024-02-15T00:30:02;2.67;;;2.03;;
8594;SDS011;4335;48.860;9.198;2024-02-15T00:32:34;4.63;;;2.00;;
8594;SDS011;4335;48.860;9.198;2024-02-15T00:35:02;2.23;;;1.60;;
8594;SDS011;4335;48.860;9.198;2024-02-15T00:37:33;2.50;;;1.67;;
8594;SDS011;4335;48.860;9.198;2024-02-15T00:40:00;2.00;;;1.80;;
8594;SDS011;4335;48.860;9.198;2024-02-15T00:42:29;4.50;;;1.73;;
8594;SDS011;4335;48.860;9.198;2024-02-15T00:44:57;3.67;;;1.87;;
8594;SDS011;4335;48.860;9.198;2024-02-15T00:47:30;2.50;;;1.90;;
8594;SDS011;4335;48.860;9.198;2024-02-15T00:49:59;2.37;;;1.70;;
8594;SDS011;4335;48.860;9.198;2024-02-15T00:52:26;2.57;;;1.60;;
8594;SDS011;4335;48.860;9.198;2024-02-15T00:54:55;1.93;;;1.70;;
8594;SDS011;4335;48.860;9.198;2024-02-15T00:57:23;2.07;;;1.60;;
8594;SDS011;4335;48.860;9.198;2024-02-15T00:59:50;2.13;;;1.63;;
8594;SDS011;4335;48.860;9.198;2024-02-15T01:02:18;2.53;;;1.83;;
8594;SDS011;4335;48.860;9.198;2024-02-15T01:04:48;1.57;;;1.47;;
8594;SDS011;4335;48.860;9.198;2024-02-15T01:07:23;2.40;;;1.60;;
8594;SDS011;4335;48.860;9.198;2024-02-15T01:09:53;4.50;;;2.10;;
8594;SDS011;4335;48.860;9.198;2024-02-15T01:12:20;4.00;;;2.33;;
8594;SDS011;4335;48.860;9.198;2024-02-15T01:14:58;2.10;;;1.90;;
8594;SDS011;4335;48.860;9.198;2024-02-15T01:17:29;2.00;;;1.80;;
8594;SDS011;4335;48.860;9.198;2024-02-15T01:19:56;2.73;;;1.70;;
8594;SDS011;4335;48.860;9.198;2024-02-15T01:22:31;3.40;;;2.00;;
8594;SDS011;4335;48.860;9.198;2024-02-15T01:24:58;2.80;;;1.70;;
8594;SDS011;4335;48.860;9.198;2024-02-15T01:27:29;4.43;;;2.13;;
8594;SDS011;4335;48.860;9.198;2024-02-15T01:29:56;1.90;;;1.67;;
8594;SDS011;4335;48.860;9.198;2024-02-15T01:32:27;2.47;;;1.80;;
8594;SDS011;4335;48.860;9.198;2024-02-15T01:34:54;3.90;;;1.73;;
8594;SDS011;4335;48.860;9.198;2024-02-15T01:37:22;3.80;;;2.03;;
8594;SDS011;4335;48.860;9.198;2024-02-15T01:39:51;5.23;;;1.80;;
8594;SDS011;4335;48.860;9.198;2024-02-15T01:42:18;1.87;;;1.60;;
8594;SDS011;4335;48.860;9.198;2024-02-15T01:44:46;2.10;;;1.43;;
8594;SDS011;4335;48.860;9.198;2024-02-15T01:47:17;3.03;;;1.60;;
8594;SDS011;4335;48.860;9.198;2024-02-15T01:49:46;2.20;;;1.63;;
8594;SDS011;4335;48.860;9.198;2024-02-15T01:52:20;6.63;;;1.93;;
8594;SDS011;4335;48.860;9.198;2024-02-15T01:54:48;5.23;;;1.90;;
8594;SDS011;4335;48.860;9.198;2024-02-15T01:57:21;2.30;;;1.57;;
8594;SDS011;4335;48.860;9.198;2024-02-15T01:59:49;3.70;;;2.00;;
8594;SDS011;4335;48.860;9.198;2024-02-15T02:02:20;3.27;;;1.83;;
8594;SDS011;4335;48.860;9.198;2024-02-15T02:04:49;3.13;;;1.90;;
8594;SDS011;4335;48.860;9.198;2024-02-15T02:07:17;3.53;;;1.80;;
8594;SDS011;4335;48.860;9.198;2024-02-15T02:09:47;3.07;;;1.63;;
8594;SDS011;4335;48.860;9.198;2024-02-15T02:12:25;3.23;;;1.80;;
8594;SDS011;4335;48.860;9.198;2024-02-15T02:14:56;2.43;;;1.70;;
8594;SDS011;4335;48.860;9.198;2024-02-15T02:17:24;3.73;;;2.23;;
8594;SDS011;4335;48.860;9.198;2024-02-15T02:19:51;3.57;;;1.67;;
8594;SDS011;4335;48.860;9.198;2024-02-15T02:22:25;2.67;;;2.00;;
8594;SDS011;4335;48.860;9.198;2024-02-15T02:25:03;2.40;;;1.70;;
8594;SDS011;4335;48.860;9.198;2024-02-15T02:27:33;2.53;;;1.70;;
8594;SDS011;4335;48.860;9.198;2024-02-15T02:30:03;2.40;;;1.90;;
8594;SDS011;4335;48.860;9.198;2024-02-15T02:32:35;4.87;;;2.13;;
8594;SDS011;4335;48.860;9.198;2024-02-15T02:35:12;4.33;;;1.80;;
8594;SDS011;4335;48.860;9.198;2024-02-15T02:37:44;2.63;;;1.97;;
8594;SDS011;4335;48.860;9.198;2024-02-15T02:40:13;2.03;;;1.70;;
8594;SDS011;4335;48.860;9.198;2024-02-15T02:42:47;11.60;;;1.97;;
8594;SDS011;4335;48.860;9.198;2024-02-15T02:45:16;3.70;;;1.97;;
8594;SDS011;4335;48.860;9.198;2024-02-15T02:47:50;4.10;;;1.80;;
8594;SDS011;4335;48.860;9.198;2024-02-15T02:50:18;3.60;;;1.83;;
8594;SDS011;4335;48.860;9.198;2024-02-15T02:52:46;2.53;;;1.73;;
8594;SDS011;4335;48.860;9.198;2024-02-15T02:55:15;2.23;;;1.90;;
8594;SDS011;4335;48.860;9.198;2024-02-15T02:57:43;3.30;;;1.80;;
8594;SDS011;4335;48.860;9.198;2024-02-15T03:00:11;2.93;;;2.53;;
8594;SDS011;4335;48.860;9.198;2024-02-15T03:02:45;2.53;;;1.77;;
8594;SDS011;4335;48.860;9.198;2024-02-15T03:05:13;2.33;;;1.77;;
8594;SDS011;4335;48.860;9.198;2024-02-15T03:07:41;3.17;;;1.83;;
8594;SDS011;4335;48.860;9.198;2024-02-15T03:10:09;2.90;;;1.90;;
8594;SDS011;4335;48.860;9.198;2024-02-15T03:12:40;3.47;;;1.80;;
8594;SDS011;4335;48.860;9.198;2024-02-15T03:15:14;2.43;;;1.67;;
8594;SDS011;4335;48.860;9.198;2024-02-15T03:17:46;3.83;;;1.90;;
8594;SDS011;4335;48.860;9.198;2024-02-15T03:20:17;2.20;;;1.67;;
8594;SDS011;4335;48.860;9.198;2024-02-15T03:22:52;2.93;;;1.90;;
8594;SDS011;4335;48.860;9.198;2024-02-15T03:25:20;4.20;;;2.03;;
8594;SDS011;4335;48.860;9.198;2024-02-15T03:27:50;2.40;;;2.00;;
8594;SDS011;4335;48.860;9.198;2024-02-15T03:30:24;3.33;;;2.40;;
8594;SDS011;4335;48.860;9.198;2024-02-15T03:32:58;2.40;;;1.63;;
8594;SDS011;4335;48.860;9.198;2024-02-15T03:35:28;3.00;;;2.10;;
8594;SDS011;4335;48.860;9.198;2024-02-15T03:37:58;2.07;;;1.70;;
8594;SDS011;4335;48.860;9.198;2024-02-15T03:40:26;2.80;;;2.07;;
8594;SDS011;4335;48.860;9.198;2024-02-15T03:42:59;4.70;;;1.87;;
8594;SDS011;4335;48.860;9.198;2024-02-15T03:45:32;2.00;;;1.80;;
8594;SDS011;4335;48.860;9.198;2024-02-15T03:48:05;1.90;;;1.60;;
8594;SDS011;4335;48.860;9.198;2024-02-15T03:50:34;3.47;;;2.07;;
8594;SDS011;4335;48.860;9.198;2024-02-15T03:53:10;2.50;;;1.83;;
8594;SDS011;4335;48.860;9.198;2024-02-15T03:55:39;4.70;;;1.97;;
8594;SDS011;4335;48.860;9.198;2024-02-15T03:58:10;4.20;;;2.07;;
8594;SDS011;4335;48.860;9.198;2024-02-15T04:00:40;2.40;;;1.50;;
8594;SDS011;4335;48.860;9.198;2024-02-15T04:03:07;2.43;;;1.60;;
8594;SDS011;4335;48.860;9.198;2024-02-15T04:05:34;2.30;;;1.83;;
8594;SDS011;4335;48.860;9.198;2024-02-15T04:08:05;2.13;;;1.70;;
8594;SDS011;4335;48.860;9.198;2024-02-15T04:10:33;2.93;;;1.67;;
8594;SDS011;4335;48.860;9.198;2024-02-15T04:13:04;2.50;;;2.00;;
8594;SDS011;4335;48.860;9.198;2024-02-15T04:15:33;2.43;;;2.20;;
8594;SDS011;4335;48.860;9.198;2024-02-15T04:18:06;4.80;;;2.10;;
8594;SDS011;4335;48.860;9.198;2024-02-15T04:20:33;2.77;;;1.80;;
8594;SDS011;4335;48.860;9.198;2024-02-15T04:23:01;2.23;;;1.77;;
8594;SDS011;4335;48.860;9.198;2024-02-15T04:25:36;1.63;;;1.53;;
8594;SDS011;4335;48.860;9.198;2024-02-15T04:28:10;3.80;;;1.80;;
8594;SDS011;4335;48.860;9.198;2024-02-15T04:30:44;3.17;;;1.80;;
8594;SDS011;4335;48.860;9.198;2024-02-15T04:33:15;4.13;;;2.33;;
8594;SDS011;4335;48.860;9.198;2024-02-15T04:35:42;3.60;;;1.80;;
8594;SDS011;4335;48.860;9.198;2024-02-15T04:38:10;3.57;;;2.07;;
8594;SDS011;4335;48.860;9.198;2024-02-15T04:40:37;2.83;;;1.60;;
8594;SDS011;4335;48.860;9.198;2024-02-15T04:43:05;1.70;;;1.60;;
8594;SDS011;4335;48.860;9.198;2024-02-15T04:45:34;3.53;;;1.80;;
8594;SDS011;4335;48.860;9.198;2024-02-15T04:48:03;2.97;;;1.90;;
8594;SDS011;4335;48.860;9.198;2024-02-15T04:50:38;3.23;;;1.80;;
8594;SDS011;4335;48.860;9.198;2024-02-15T04:53:11;2.83;;;1.73;;
8594;SDS011;4335;48.860;9.198;2024-02-15T04:55:42;4.67;;;2.27;;
8594;SDS011;4335;48.860;9.198;2024-02-15T04:58:09;4.30;;;1.90;;
8594;SDS011;4335;48.860;9.198;2024-02-15T05:00:40;4.00;;;2.03;;
8594;SDS011;4335;48.860;9.198;2024-02-15T05:03:11;2.53;;;1.70;;
8594;SDS011;4335;48.860;9.198;2024-02-15T05:05:42;3.33;;;1.87;;
8594;SDS011;4335;48.860;9.198;2024-02-15T05:08:12;3.20;;;2.17;;
8594;SDS011;4335;48.860;9.198;2024-02-15T05:10:43;2.97;;;1.87;;
8594;SDS011;4335;48.860;9.198;2024-02-15T05:13:21;3.23;;;2.30;;
8594;SDS011;4335;48.860;9.198;2024-02-15T05:15:50;2.03;;;1.83;;
8594;SDS011;4335;48.860;9.198;2024-02-15T05:18:25;2.27;;;1.80;;
8594;SDS011;4335;48.860;9.198;2024-02-15T05:20:59;4.47;;;2.20;;
8594;SDS011;4335;48.860;9.198;2024-02-15T05:23:28;4.53;;;2.13;;
8594;SDS011;4335;48.860;9.198;2024-02-15T05:25:56;4.20;;;2.00;;
8594;SDS011;4335;48.860;9.198;2024-02-15T05:28:23;3.33;;;2.07;;
8594;SDS011;4335;48.860;9.198;2024-02-15T05:31:08;3.60;;;2.23;;
8594;SDS011;4335;48.860;9.198;2024-02-15T05:33:47;3.67;;;2.10;;
8594;SDS011;4335;48.860;9.198;2024-02-15T05:36:17;1.97;;;1.77;;
8594;SDS011;4335;48.860;9.198;2024-02-15T05:38:46;4.60;;;1.80;;
8594;SDS011;4335;48.860;9.198;2024-02-15T05:41:23;4.43;;;2.23;;
8594;SDS011;4335;48.860;9.198;2024-02-15T05:43:51;2.50;;;2.10;;
8594;SDS011;4335;48.860;9.198;2024-02-15T05:46:19;3.93;;;2.50;;
8594;SDS011;4335;48.860;9.198;2024-02-15T05:48:49;4.17;;;2.60;;
8594;SDS011;4335;48.860;9.198;2024-02-15T05:51:28;3.77;;;2.00;;
8594;SDS011;4335;48.860;9.198;2024-02-15T05:53:59;3.73;;;2.30;;
8594;SDS011;4335;48.860;9.198;2024-02-15T05:56:30;4.37;;;3.13;;
8594;SDS011;4335;48.860;9.198;2024-02-15T05:58:58;4.33;;;2.70;;
8594;SDS011;4335;48.860;9.198;2024-02-15T06:01:27;6.07;;;2.60;;
8594;SDS011;4335;48.860;9.198;2024-02-15T06:04:00;4.13;;;2.37;;
8594;SDS011;4335;48.860;9.198;2024-02-15T06:06:35;2.93;;;2.23;;
8594;SDS011;4335;48.860;9.198;2024-02-15T06:09:06;5.83;;;2.90;;
8594;SDS011;4335;48.860;9.198;2024-02-15T06:11:33;4.00;;;3.00;;
8594;SDS011;4335;48.860;9.198;2024-02-15T06:14:02;4.57;;;3.00;;
8594;SDS011;4335;48.860;9.198;2024-02-15T06:16:43;4.63;;;2.80;;
8594;SDS011;4335;48.860;9.198;2024-02-15T06:19:13;4.10;;;2.60;;
8594;SDS011;4335;48.860;9.198;2024-02-15T06:21:41;3.67;;;2.73;;
8594;SDS011;4335;48.860;9.198;2024-02-15T06:24:08;4.07;;;3.00;;
8594;SDS011;4335;48.860;9.198;2024-02-15T06:26:39;3.83;;;2.50;;
8594;SDS011;4335;48.860;9.198;2024-02-15T06:29:13;8.13;;;2.90;;
8594;SDS011;4335;48.860;9.198;2024-02-15T06:31:57;4.97;;;3.43;;
8594;SDS011;4335;48.860;9.198;2024-02-15T06:34:58;8.00;;;5.43;;
8594;SDS011;4335;48.860;9.198;2024-02-15T06:37:46;6.33;;;4.70;;
8594;SDS011;4335;48.860;9.198;2024-02-15T06:40:45;5.00;;;3.47;;
8594;SDS011;4335;48.860;9.198;2024-02-15T06:43:18;4.97;;;3.10;;
8594;SDS011;4335;48.860;9.198;2024-02-15T06:45:46;4.33;;;2.83;;
8594;SDS011;4335;48.860;9.198;2024-02-15T06:48:16;5.73;;;3.50;;
8594;SDS011;4335;48.860;9.198;2024-02-15T06:50:45;9.67;;;6.93;;
8594;SDS011;4335;48.860;9.198;2024-02-15T06:53:21;10.67;;;6.70;;
8594;SDS011;4335;48.860;9.198;2024-02-15T06:55:54;12.47;;;7.90;;
8594;SDS011;4335;48.860;9.198;2024-02-15T06:58:24;6.17;;;4.27;;
8594;SDS011;4335;48.860;9.198;2024-02-15T07:00:52;6.37;;;3.60;;
8594;SDS011;4335;48.860;9.198;2024-02-15T07:03:23;4.23;;;2.93;;
8594;SDS011;4335;48.860;9.198;2024-02-15T07:06:03;4.60;;;3.00;;
8594;SDS011;4335;48.860;9.198;2024-02-15T07:08:31;6.17;;;2.97;;
8594;SDS011;4335;48.860;9.198;2024-02-15T07:10:58;5.60;;;3.37;;
8594;SDS011;4335;48.860;9.198;2024-02-15T07:13:33;3.63;;;3.33;;
8594;SDS011;4335;48.860;9.198;2024-02-15T07:16:06;4.70;;;3.07;;
8594;SDS011;4335;48.860;9.198;2024-02-15T07:18:34;3.77;;;2.80;;
8594;SDS011;4335;48.860;9.198;2024-02-15T07:21:11;3.30;;;2.70;;
8594;SDS011;4335;48.860;9.198;2024-02-15T07:23:42;3.93;;;2.83;;
8594;SDS011;4335;48.860;9.198;2024-02-15T07:26:09;4.00;;;3.00;;
8594;SDS011;4335;48.860;9.198;2024-02-15T07:28:41;4.60;;;3.03;;
8594;SDS011;4335;48.860;9.198;2024-02-15T07:31:12;3.10;;;2.80;;
8594;SDS011;4335;48.860;9.198;2024-02-15T07:33:50;4.87;;;2.67;;
8594;SDS011;4335;48.860;9.198;2024-02-15T07:36:23;7.10;;;3.00;;
8594;SDS011;4335;48.860;9.198;2024-02-15T07:38:54;4.17;;;2.73;;
8594;SDS011;4335;48.860;9.198;2024-02-15T07:41:25;6.03;;;2.63;;
8594;SDS011;4335;48.860;9.198;2024-02-15T07:43:53;4.37;;;2.50;;
8594;SDS011;4335;48.860;9.198;2024-02-15T07:46:23;4.73;;;2.73;;
8594;SDS011;4335;48.860;9.198;2024-02-15T07:48:50;3.50;;;2.73;;
8594;SDS011;4335;48.860;9.198;2024-02-15T07:51:18;6.37;;;2.90;;
8594;SDS011;4335;48.860;9.198;2024-02-15T07:53:57;4.30;;;3.00;;
8594;SDS011;4335;48.860;9.198;2024-02-15T07:56:24;6.17;;;2.93;;
8594;SDS011;4335;48.860;9.198;2024-02-15T07:58:52;5.13;;;2.77;;
8594;SDS011;4335;48.860;9.198;2024-02-15T08:01:22;4.83;;;3.20;;
8594;SDS011;4335;48.860;9.198;2024-02-15T08:03:50;3.47;;;2.70;;
8594;SDS011;4335;48.860;9.198;2024-02-15T08:06:18;4.43;;;2.90;;
8594;SDS011;4335;48.860;9.198;2024-02-15T08:08:48;9.33;;;3.13;;
8594;SDS011;4335;48.860;9.198;2024-02-15T08:11:18;3.70;;;2.73;;
8594;SDS011;4335;48.860;9.198;2024-02-15T08:13:46;3.10;;;2.77;;
8594;SDS011;4335;48.860;9.198;2024-02-15T08:16:18;3.37;;;2.33;;
8594;SDS011;4335;48.860;9.198;2024-02-15T08:18:48;4.63;;;2.77;;
8594;SDS011;4335;48.860;9.198;2024-02-15T08:21:18;3.83;;;2.40;;
8594;SDS011;4335;48.860;9.198;2024-02-15T08:23:51;4.93;;;3.63;;
8594;SDS011;4335;48.860;9.198;2024-02-15T08:26:20;3.47;;;2.60;;
8594;SDS011;4335;48.860;9.198;2024-02-15T08:28:47;4.70;;;2.80;;
8594;SDS011;4335;48.860;9.198;2024-02-15T08:31:20;4.93;;;3.00;;
8594;SDS011;4335;48.860;9.198;2024-02-15T08:33:48;4.43;;;2.83;;
8594;SDS011;4335;48.860;9.198;2024-02-15T08:36:15;5.53;;;3.20;;
8594;SDS011;4335;48.860;9.198;2024-02-15T08:38:44;6.47;;;3.40;;
8594;SDS011;4335;48.860;9.198;2024-02-15T08:41:14;6.40;;;3.23;;
8594;SDS011;4335;48.860;9.198;2024-02-15T08:43:45;4.83;;;3.00;;
8594;SDS011;4335;48.860;9.198;2024-02-15T08:46:13;4.23;;;2.97;;
8594;SDS011;4335;48.860;9.198;2024-02-15T08:48:55;4.93;;;2.80;;
8594;SDS011;4335;48.860;9.198;2024-02-15T08:51:23;5.33;;;3.30;;
8594;SDS011;4335;48.860;9.198;2024-02-15T08:53:50;7.67;;;2.97;;
8594;SDS011;4335;48.860;9.198;2024-02-15T08:56:21;4.33;;;2.83;;
8594;SDS011;4335;48.860;9.198;2024-02-15T08:58:50;4.80;;;2.90;;
8594;SDS011;4335;48.860;9.198;2024-02-15T09:01:18;2.93;;;2.50;;
8594;SDS011;4335;48.860;9.198;2024-02-15T09:03:47;5.30;;;3.00;;
8594;SDS011;4335;48.860;9.198;2024-02-15T09:06:18;4.67;;;2.57;;
8594;SDS011;4335;48.860;9.198;2024-02-15T09:08:45;4.50;;;2.57;;
8594;SDS011;4335;48.860;9.198;2024-02-15T09:11:13;5.60;;;4.17;;
8594;SDS011;4335;48.860;9.198;2024-02-15T09:13:43;3.07;;;2.33;;
8594;SDS011;4335;48.860;9.198;2024-02-15T09:16:14;2.80;;;2.27;;
8594;SDS011;4335;48.860;9.198;2024-02-15T09:18:45;3.43;;;3.00;;
8594;SDS011;4335;48.860;9.198;2024-02-15T09:21:12;4.70;;;3.23;;
8594;SDS011;4335;48.860;9.198;2024-02-15T09:23:39;5.10;;;3.37;;
8594;SDS011;4335;48.860;9.198;2024-02-15T09:26:10;4.17;;;2.97;;
8594;SDS011;4335;48.860;9.198;2024-02-15T09:28:40;3.57;;;2.60;;
8594;SDS011;4335;48.860;9.198;2024-02-15T09:31:08;7.03;;;3.67;;
8594;SDS011;4335;48.860;9.198;2024-02-15T09:33:41;6.73;;;3.03;;
8594;SDS011;4335;48.860;9.198;2024-02-15T09:36:08;4.90;;;2.70;;
8594;SDS011;4335;48.860;9.198;2024-02-15T09:38:39;5.80;;;2.90;;
8594;SDS011;4335;48.860;9.198;2024-02-15T09:41:06;6.53;;;3.80;;
8594;SDS011;4335;48.860;9.198;2024-02-15T09:43:36;6.10;;;3.40;;
8594;SDS011;4335;48.860;9.198;2024-02-15T09:46:05;6.60;;;3.43;;
8594;SDS011;4335;48.860;9.198;2024-02-15T09:48:34;5.53;;;3.07;;
8594;SDS011;4335;48.860;9.198;2024-02-15T09:51:04;5.60;;;2.70;;
8594;SDS011;4335;48.860;9.198;2024-02-15T09:53:36;7.87;;;3.13;;
8594;SDS011;4335;48.860;9.198;2024-02-15T09:56:07;3.30;;;2.27;;
8594;SDS011;4335;48.860;9.198;2024-02-15T09:58:36;2.93;;;2.10;;
8594;SDS011;4335;48.860;9.198;2024-02-15T10:01:04;3.93;;;2.67;;
8594;SDS011;4335;48.860;9.198;2024-02-15T10:03:34;4.73;;;2.57;;
8594;SDS011;4335;48.860;9.198;2024-02-15T10:06:08;6.63;;;2.83;;
8594;SDS011;4335;48.860;9.198;2024-02-15T10:08:38;14.30;;;3.50;;
8594;SDS011;4335;48.860;9.198;2024-02-15T10:11:10;5.47;;;2.40;;
8594;SDS011;4335;48.860;9.198;2024-02-15T10:13:38;4.07;;;2.30;;
8594;SDS011;4335;48.860;9.198;2024-02-15T10:16:13;5.17;;;2.20;;
8594;SDS011;4335;48.860;9.198;2024-02-15T10:18:42;5.43;;;2.37;;
8594;SDS011;4335;48.860;9.198;2024-02-15T10:21:24;2.27;;;2.03;;
8594;SDS011;4335;48.860;9.198;2024-02-15T10:24:06;3.97;;;2.87;;
8594;SDS011;4335;48.860;9.198;2024-02-15T10:26:34;4.60;;;2.47;;
8594;SDS011;4335;48.860;9.198;2024-02-15T10:29:08;4.10;;;1.90;;
8594;SDS011;4335;48.860;9.198;2024-02-15T10:31:37;4.37;;;1.93;;
8594;SDS011;4335;48.860;9.198;2024-02-15T10:34:13;3.10;;;1.80;;
8594;SDS011;4335;48.860;9.198;2024-02-15T10:36:42;5.93;;;2.03;;
8594;SDS011;4335;48.860;9.198;2024-02-15T10:39:10;2.45;;;1.98;;
8594;SDS011;4335;48.860;9.198;2024-02-15T10:41:43;4.18;;;2.10;;
8594;SDS011;4335;48.860;9.198;2024-02-15T10:44:13;2.17;;;1.75;;
8594;SDS011;4335;48.860;9.198;2024-02-15T10:46:44;4.70;;;1.90;;
8594;SDS011;4335;48.860;9.198;2024-02-15T10:49:12;2.67;;;1.70;;
8594;SDS011;4335;48.860;9.198;2024-02-15T10:51:43;3.20;;;1.33;;
8594;SDS011;4335;48.860;9.198;2024-02-15T10:54:12;2.47;;;2.00;;
8594;SDS011;4335;48.860;9.198;2024-02-15T10:56:43;6.00;;;3.53;;
8594;SDS011;4335;48.860;9.198;2024-02-15T11:01:59;2.20;;;1.63;;
8594;SDS011;4335;48.860;9.198;2024-02-15T11:04:32;2.75;;;1.48;;
8594;SDS011;4335;48.860;9.198;2024-02-15T11:07:10;3.28;;;1.60;;
8594;SDS011;4335;48.860;9.198;2024-02-15T11:09:44;1.75;;;1.42;;
8594;SDS011;4335;48.860;9.198;2024-02-15T11:12:12;1.85;;;1.40;;
8594;SDS011;4335;48.860;9.198;2024-02-15T11:14:47;3.50;;;1.90;;
8594;SDS011;4335;48.860;9.198;2024-02-15T11:23:28;4.37;;;1.83;;
8594;SDS011;4335;48.860;9.198;2024-02-15T11:25:56;1.80;;;1.33;;
8594;SDS011;4335;48.860;9.198;2024-02-15T11:28:39;2.97;;;1.90;;
8594;SDS011;4335;48.860;9.198;2024-02-15T11:40:25;1.40;;;1.30;;
8594;SDS011;4335;48.860;9.198;2024-02-15T11:42:54;2.10;;;1.60;;
8594;SDS011;4335;48.860;9.198;2024-02-15T11:45:24;1.83;;;1.37;;
8594;SDS011;4335;48.860;9.198;2024-02-15T11:47:58;1.90;;;1.73;;
8594;SDS011;4335;48.860;9.198;2024-02-15T11:50:33;5.17;;;2.07;;
8594;SDS011;4335;48.860;9.198;2024-02-15T11:53:05;7.07;;;1.53;;
8594;SDS011;4335;48.860;9.198;2024-02-15T11:55:39;1.70;;;1.60;;
8594;SDS011;4335;48.860;9.198;2024-02-15T11:58:08;1.40;;;1.30;;
8594;SDS011;4335;48.860;9.198;2024-02-15T12:00:47;2.47;;;1.37;;
8594;SDS011;4335;48.860;9.198;2024-02-15T12:03:31;3.60;;;1.53;;
8594;SDS011;4335;48.860;9.198;2024-02-15T12:06:16;3.10;;;1.70;;
8594;SDS011;4335;48.860;9.198;2024-02-15T12:09:13;3.63;;;2.53;;
8594;SDS011;4335;48.860;9.198;2024-02-15T12:12:11;2.50;;;1.80;;
8594;SDS011;4335;48.860;9.198;2024-02-15T12:14:59;3.43;;;1.47;;
8594;SDS011;4335;48.860;9.198;2024-02-15T12:17:44;1.40;;;1.20;;
8594;SDS011;4335;48.860;9.198;2024-02-15T12:20:29;1.40;;;1.20;;
8594;SDS011;4335;48.860;9.198;2024-02-15T12:22:57;2.43;;;1.40;;
8594;SDS011;4335;48.860;9.198;2024-02-15T12:25:25;3.60;;;1.60;;
8594;SDS011;4335;48.860;9.198;2024-02-15T12:27:55;2.23;;;1.73;;
8594;SDS011;4335;48.860;9.198;2024-02-15T12:30:23;2.23;;;1.60;;
8594;SDS011;4335;48.860;9.198;2024-02-15T12:32:53;2.13;;;1.57;;
8594;SDS011;4335;48.860;9.198;2024-02-15T12:35:39;2.53;;;1.73;;
8594;SDS011;4335;48.860;9.198;2024-02-15T12:38:07;2.33;;;1.67;;
8594;SDS011;4335;48.860;9.198;2024-02-15T12:40:35;2.00;;;1.40;;
8594;SDS011;4335;48.860;9.198;2024-02-15T12:43:06;3.40;;;1.50;;
8594;SDS011;4335;48.860;9.198;2024-02-15T12:45:35;3.43;;;1.57;;
8594;SDS011;4335;48.860;9.198;2024-02-15T12:48:07;3.87;;;1.73;;
8594;SDS011;4335;48.860;9.198;2024-02-15T12:50:38;3.83;;;1.70;;
8594;SDS011;4335;48.860;9.198;2024-02-15T12:53:06;2.37;;;1.70;;
8594;SDS011;4335;48.860;9.198;2024-02-15T12:55:34;2.23;;;1.60;;
8594;SDS011;4335;48.860;9.198;2024-02-15T12:58:11;2.73;;;1.70;;
8594;SDS011;4335;48.860;9.198;2024-02-15T13:00:44;2.10;;;1.90;;
8594;SDS011;4335;48.860;9.198;2024-02-15T13:03:11;3.33;;;2.10;;
8594;SDS011;4335;48.860;9.198;2024-02-15T13:05:44;3.00;;;1.60;;
8594;SDS011;4335;48.860;9.198;2024-02-15T13:08:13;3.10;;;1.67;;
8594;SDS011;4335;48.860;9.198;2024-02-15T13:10:43;1.80;;;1.40;;
8594;SDS011;4335;48.860;9.198;2024-02-15T13:13:11;1.63;;;1.40;;
8594;SDS011;4335;48.860;9.198;2024-02-15T13:15:42;3.47;;;1.87;;
8594;SDS011;4335;48.860;9.198;2024-02-15T13:18:10;4.03;;;1.90;;
8594;SDS011;4335;48.860;9.198;2024-02-15T13:20:39;4.33;;;1.73;;
8594;SDS011;4335;48.860;9.198;2024-02-15T13:23:15;3.80;;;1.90;;
8594;SDS011;4335;48.860;9.198;2024-02-15T13:25:50;2.40;;;1.60;;
8594;SDS011;4335;48.860;9.198;2024-02-15T13:28:21;2.20;;;1.67;;
8594;SDS011;4335;48.860;9.198;2024-02-15T13:30:51;1.90;;;1.40;;
8594;SDS011;4335;48.860;9.198;2024-02-15T13:33:24;2.77;;;1.40;;
8594;SDS011;4335;48.860;9.198;2024-02-15T13:36:00;2.80;;;1.40;;
8594;SDS011;4335;48.860;9.198;2024-02-15T13:38:27;2.73;;;1.80;;
8594;SDS011;4335;48.860;9.198;2024-02-15T13:40:55;2.63;;;1.90;;
8594;SDS011;4335;48.860;9.198;2024-02-15T13:43:30;3.60;;;1.63;;
8594;SDS011;4335;48.860;9.198;2024-02-15T13:46:00;3.67;;;1.53;;
8594;SDS011;4335;48.860;9.198;2024-02-15T13:48:29;2.97;;;1.60;;
8594;SDS011;4335;48.860;9.198;2024-02-15T13:50:57;2.80;;;1.40;;
8594;SDS011;4335;48.860;9.198;2024-02-15T13:53:27;2.40;;;1.57;;
8594;SDS011;4335;48.860;9.198;2024-02-15T13:56:01;2.97;;;1.67;;
8594;SDS011;4335;48.860;9.198;2024-02-15T13:58:30;2.03;;;1.60;;
8594;SDS011;4335;48.860;9.198;2024-02-15T14:01:03;2.80;;;1.57;;
8594;SDS011;4335;48.860;9.198;2024-02-15T14:03:34;5.30;;;2.00;;
8594;SDS011;4335;48.860;9.198;2024-02-15T14:06:04;6.20;;;2.20;;
8594;SDS011;4335;48.860;9.198;2024-02-15T14:08:32;4.43;;;1.63;;
8594;SDS011;4335;48.860;9.198;2024-02-15T14:11:03;4.03;;;1.70;;
8594;SDS011;4335;48.860;9.198;2024-02-15T14:13:37;3.57;;;1.57;;
8594;SDS011;4335;48.860;9.198;2024-02-15T14:16:11;3.60;;;1.77;;
8594;SDS011;4335;48.860;9.198;2024-02-15T14:18:39;3.13;;;1.57;;
8594;SDS011;4335;48.860;9.198;2024-02-15T14:21:15;3.10;;;1.53;;
8594;SDS011;4335;48.860;9.198;2024-02-15T14:23:43;3.40;;;1.60;;
8594;SDS011;4335;48.860;9.198;2024-02-15T14:26:14;3.83;;;1.70;;
8594;SDS011;4335;48.860;9.198;2024-02-15T14:28:42;6.87;;;1.70;;
8594;SDS011;4335;48.860;9.198;2024-02-15T14:31:10;1.83;;;1.53;;
8594;SDS011;4335;48.860;9.198;2024-02-15T14:34:01;4.23;;;1.37;;
8594;SDS011;4335;48.860;9.198;2024-02-15T14:36:35;3.10;;;2.07;;
8594;SDS011;4335;48.860;9.198;2024-02-15T14:39:03;2.03;;;1.67;;
8594;SDS011;4335;48.860;9.198;2024-02-15T14:41:33;1.60;;;1.50;;
8594;SDS011;4335;48.860;9.198;2024-02-15T14:44:08;2.97;;;2.07;;
8594;SDS011;4335;48.860;9.198;2024-02-15T14:46:39;3.10;;;1.67;;
8594;SDS011;4335;48.860;9.198;2024-02-15T14:49:09;2.30;;;1.37;;
8594;SDS011;4335;48.860;9.198;2024-02-15T14:51:43;1.97;;;1.77;;
8594;SDS011;4335;48.860;9.198;2024-02-15T14:54:10;1.87;;;1.47;;
8594;SDS011;4335;48.860;9.198;2024-02-15T14:56:43;2.40;;;1.60;;
8594;SDS011;4335;48.860;9.198;2024-02-15T14:59:10;1.93;;;1.40;;
8594;SDS011;4335;48.860;9.198;2024-02-15T15:01:39;1.97;;;1.67;;
8594;SDS011;4335;48.860;9.198;2024-02-15T15:04:09;3.10;;;1.60;;
8594;SDS011;4335;48.860;9.198;2024-02-15T15:06:37;4.50;;;2.13;;
8594;SDS011;4335;48.860;9.198;2024-02-15T15:09:28;3.30;;;1.60;;
8594;SDS011;4335;48.860;9.198;2024-02-15T15:12:15;3.50;;;2.03;;
8594;SDS011;4335;48.860;9.198;2024-02-15T15:15:14;4.10;;;1.60;;
8594;SDS011;4335;48.860;9.198;2024-02-15T15:17:46;2.17;;;1.53;;
8594;SDS011;4335;48.860;9.198;2024-02-15T15:20:14;3.07;;;2.20;;
8594;SDS011;4335;48.860;9.198;2024-02-15T15:22:45;2.90;;;1.50;;
8594;SDS011;4335;48.860;9.198;2024-02-15T15:25:12;1.87;;;1.60;;
8594;SDS011;4335;48.860;9.198;2024-02-15T15:27:43;3.13;;;1.73;;
8594;SDS011;4335;48.860;9.198;2024-02-15T15:30:13;2.97;;;1.80;;
8594;SDS011;4335;48.860;9.198;2024-02-15T15:32:43;2.77;;;1.60;;
8594;SDS011;4335;48.860;9.198;2024-02-15T15:35:13;2.57;;;1.73;;
8594;SDS011;4335;48.860;9.198;2024-02-15T15:37:43;5.93;;;2.50;;
8594;SDS011;4335;48.860;9.198;2024-02-15T15:40:17;4.20;;;2.50;;
8594;SDS011;4335;48.860;9.198;2024-02-15T15:42:48;3.47;;;2.30;;
8594;SDS011;4335;48.860;9.198;2024-02-15T15:45:15;3.80;;;1.60;;
8594;SDS011;4335;48.860;9.198;2024-02-15T15:47:43;4.03;;;2.33;;
8594;SDS011;4335;48.860;9.198;2024-02-15T15:50:13;3.23;;;1.70;;
8594;SDS011;4335;48.860;9.198;2024-02-15T15:52:44;5.73;;;2.30;;
8594;SDS011;4335;48.860;9.198;2024-02-15T15:55:11;3.03;;;1.80;;
8594;SDS011;4335;48.860;9.198;2024-02-15T15:57:39;1.90;;;1.70;;